RYR21FQ LIME-LATI
Flight info
| Callsign | RYR21FQ |
|---|---|
| Flight time | 1h 16m |
| Altitude | 39000 |
| Route | LEGLO L615 NEVNI DCT LABIN DCT SPL DCT GEBNI DCT MADOS DCT BALHA DCT MOKUN DCT TIBRI DCT PETAK |
| Aircraft | B738/M-SDE2E3FGHIRWXY/LB1 |
Departure
| Time | 2026-05-06 21:44 |
|---|---|
| Airport | Il Caravaggio International Airport (LIME) |
Arrival
| Time | 2026-05-06 23:00 |
|---|---|
| Airport | Tirana International Airport Mother Teresa (LATI) |
| Time | Latitude | Longitude | Altitude | Speed | Heading |
|---|---|---|---|---|---|
| 2026-05-06 21:27 | 45.66596 | 9.70247 | 791 ft | 0 kts | 194° |
| 2026-05-06 21:36 | 45.66597 | 9.70247 | 791 ft | 0 kts | 194° |
| 2026-05-06 21:36 | 45.66607 | 9.70251 | 791 ft | 2 kts | 194° |
| 2026-05-06 21:36 | 45.66625 | 9.70257 | 791 ft | 3 kts | 194° |
| 2026-05-06 21:37 | 45.66644 | 9.70264 | 791 ft | 2 kts | 194° |
| 2026-05-06 21:37 | 45.66662 | 9.70271 | 791 ft | 3 kts | 202° |
| 2026-05-06 21:37 | 45.66678 | 9.70287 | 791 ft | 3 kts | 226° |
| 2026-05-06 21:37 | 45.66689 | 9.70311 | 791 ft | 3 kts | 249° |
| 2026-05-06 21:38 | 45.66693 | 9.70340 | 791 ft | 3 kts | 269° |
| 2026-05-06 21:38 | 45.66693 | 9.70344 | 791 ft | 0 kts | 271° |
| 2026-05-06 21:39 | 45.66693 | 9.70334 | 791 ft | 2 kts | 271° |
| 2026-05-06 21:39 | 45.66696 | 9.70296 | 791 ft | 6 kts | 282° |
| 2026-05-06 21:39 | 45.66710 | 9.70220 | 791 ft | 10 kts | 285° |
| 2026-05-06 21:40 | 45.66732 | 9.70103 | 791 ft | 14 kts | 285° |
| 2026-05-06 21:40 | 45.66761 | 9.69947 | 791 ft | 18 kts | 285° |
| 2026-05-06 21:40 | 45.66797 | 9.69756 | 791 ft | 22 kts | 285° |
| 2026-05-06 21:40 | 45.66840 | 9.69528 | 791 ft | 25 kts | 285° |
| 2026-05-06 21:41 | 45.66868 | 9.69375 | 791 ft | 14 kts | 285° |
| 2026-05-06 21:41 | 45.66892 | 9.69245 | 791 ft | 13 kts | 285° |
| 2026-05-06 21:41 | 45.66916 | 9.69118 | 791 ft | 13 kts | 285° |
| 2026-05-06 21:41 | 45.66941 | 9.68988 | 791 ft | 14 kts | 285° |
| 2026-05-06 21:42 | 45.66999 | 9.68912 | 791 ft | 11 kts | 8° |
| 2026-05-06 21:42 | 45.67076 | 9.68937 | 791 ft | 11 kts | 13° |
| 2026-05-06 21:42 | 45.67107 | 9.69004 | 791 ft | 9 kts | 102° |
| 2026-05-06 21:42 | 45.67096 | 9.69067 | 791 ft | 3 kts | 105° |
| 2026-05-06 21:43 | 45.67091 | 9.69095 | 791 ft | 12 kts | 105° |
| 2026-05-06 21:43 | 45.67017 | 9.69485 | 791 ft | 73 kts | 105° |
| 2026-05-06 21:43 | 45.66830 | 9.70483 | 791 ft | 133 kts | 105° |
| 2026-05-06 21:43 | 45.66556 | 9.71949 | 1051 ft | 158 kts | 105° |
| 2026-05-06 21:44 | 45.66263 | 9.73480 | 1743 ft | 161 kts | 105° |
| 2026-05-06 21:44 | 45.65950 | 9.75009 | 2413 ft | 163 kts | 99° |
| 2026-05-06 21:44 | 45.65856 | 9.76631 | 3088 ft | 166 kts | 92° |
| 2026-05-06 21:44 | 45.65813 | 9.78309 | 3705 ft | 173 kts | 92° |
| 2026-05-06 21:45 | 45.65780 | 9.80085 | 4317 ft | 183 kts | 92° |
| 2026-05-06 21:45 | 45.65754 | 9.81321 | 4727 ft | 192 kts | 92° |
| 2026-05-06 21:45 | 45.65698 | 9.83975 | 5559 ft | 211 kts | 92° |
| 2026-05-06 21:45 | 45.65655 | 9.86187 | 6144 ft | 233 kts | 92° |
| 2026-05-06 21:46 | 45.65606 | 9.88596 | 6772 ft | 255 kts | 92° |
| 2026-05-06 21:46 | 45.65571 | 9.90335 | 7189 ft | 270 kts | 92° |
| 2026-05-06 21:46 | 45.65490 | 9.94102 | 8017 ft | 299 kts | 93° |
| 2026-05-06 21:46 | 45.65434 | 9.96126 | 8428 ft | 313 kts | 93° |
| 2026-05-06 21:47 | 45.65338 | 9.99336 | 9077 ft | 332 kts | 93° |
| 2026-05-06 21:47 | 45.65234 | 10.02726 | 9819 ft | 349 kts | 94° |
| 2026-05-06 21:47 | 45.65118 | 10.07469 | 10795 ft | 370 kts | 92° |
| 2026-05-06 21:47 | 45.65084 | 10.10001 | 11293 ft | 379 kts | 92° |
| 2026-05-06 21:48 | 45.65053 | 10.13791 | 12017 ft | 391 kts | 92° |
| 2026-05-06 21:48 | 45.65038 | 10.17725 | 12816 ft | 399 kts | 92° |
| 2026-05-06 21:48 | 45.65029 | 10.21690 | 13665 ft | 403 kts | 92° |
| 2026-05-06 21:48 | 45.65014 | 10.25737 | 14522 ft | 407 kts | 92° |
| 2026-05-06 21:49 | 45.65002 | 10.29802 | 15377 ft | 409 kts | 93° |
| 2026-05-06 21:49 | 45.64976 | 10.33838 | 16221 ft | 409 kts | 94° |
| 2026-05-06 21:49 | 45.64704 | 10.37870 | 17097 ft | 405 kts | 103° |
| 2026-05-06 21:49 | 45.64131 | 10.41790 | 17961 ft | 408 kts | 107° |
| 2026-05-06 21:50 | 45.63402 | 10.45725 | 18830 ft | 410 kts | 110° |
| 2026-05-06 21:50 | 45.62588 | 10.49652 | 19700 ft | 412 kts | 111° |
| 2026-05-06 21:50 | 45.61733 | 10.53592 | 20559 ft | 418 kts | 112° |
| 2026-05-06 21:50 | 45.60844 | 10.57576 | 21414 ft | 423 kts | 113° |
| 2026-05-06 21:51 | 45.59942 | 10.61553 | 22258 ft | 427 kts | 114° |
| 2026-05-06 21:51 | 45.59024 | 10.65615 | 23112 ft | 430 kts | 114° |
| 2026-05-06 21:51 | 45.58098 | 10.69695 | 23965 ft | 431 kts | 115° |
| 2026-05-06 21:51 | 45.57179 | 10.73730 | 24808 ft | 432 kts | 115° |
| 2026-05-06 21:52 | 45.56255 | 10.77815 | 25653 ft | 432 kts | 115° |
| 2026-05-06 21:52 | 45.55317 | 10.81935 | 26300 ft | 436 kts | 115° |
| 2026-05-06 21:52 | 45.54369 | 10.86033 | 26829 ft | 442 kts | 116° |
| 2026-05-06 21:52 | 45.53392 | 10.90227 | 27339 ft | 447 kts | 116° |
| 2026-05-06 21:53 | 45.52403 | 10.94470 | 27844 ft | 452 kts | 116° |
| 2026-05-06 21:53 | 45.51401 | 10.98768 | 28349 ft | 456 kts | 116° |
| 2026-05-06 21:53 | 45.50409 | 11.03034 | 28846 ft | 459 kts | 116° |
| 2026-05-06 21:53 | 45.49402 | 11.07380 | 29349 ft | 462 kts | 116° |
| 2026-05-06 21:54 | 45.48396 | 11.11738 | 29850 ft | 463 kts | 116° |
| 2026-05-06 21:54 | 45.47387 | 11.16121 | 30352 ft | 466 kts | 116° |
| 2026-05-06 21:54 | 45.46372 | 11.20483 | 30850 ft | 469 kts | 116° |
| 2026-05-06 21:54 | 45.45339 | 11.24923 | 31352 ft | 473 kts | 116° |
| 2026-05-06 21:55 | 45.44292 | 11.29350 | 31851 ft | 476 kts | 116° |
| 2026-05-06 21:55 | 45.43220 | 11.33837 | 32353 ft | 479 kts | 116° |
| 2026-05-06 21:55 | 45.42147 | 11.38378 | 32857 ft | 482 kts | 116° |
| 2026-05-06 21:55 | 45.41077 | 11.42922 | 33359 ft | 484 kts | 116° |
| 2026-05-06 21:56 | 45.40016 | 11.47414 | 33854 ft | 484 kts | 116° |
| 2026-05-06 21:56 | 45.38919 | 11.51985 | 34358 ft | 485 kts | 116° |
| 2026-05-06 21:56 | 45.37832 | 11.56488 | 34854 ft | 485 kts | 116° |
| 2026-05-06 21:56 | 45.36751 | 11.60989 | 35350 ft | 485 kts | 116° |
| 2026-05-06 21:57 | 45.35653 | 11.65549 | 35853 ft | 484 kts | 115° |
| 2026-05-06 21:57 | 45.34549 | 11.70089 | 36355 ft | 483 kts | 115° |
| 2026-05-06 21:57 | 45.33455 | 11.74537 | 36849 ft | 481 kts | 115° |
| 2026-05-06 21:57 | 45.32344 | 11.79053 | 37351 ft | 480 kts | 115° |
| 2026-05-06 21:58 | 45.31257 | 11.83493 | 37846 ft | 478 kts | 115° |
| 2026-05-06 21:58 | 45.30161 | 11.87944 | 38346 ft | 475 kts | 115° |
| 2026-05-06 21:58 | 45.29070 | 11.92330 | 38766 ft | 475 kts | 114° |
| 2026-05-06 21:58 | 45.27942 | 11.96802 | 38891 ft | 481 kts | 115° |
| 2026-05-06 21:59 | 45.25663 | 12.05831 | 38923 ft | 492 kts | 114° |
| 2026-05-06 21:59 | 45.23372 | 12.14984 | 38916 ft | 490 kts | 114° |
| 2026-05-06 22:00 | 45.21067 | 12.24027 | 38916 ft | 486 kts | 115° |
| 2026-05-06 22:00 | 45.18737 | 12.33014 | 38916 ft | 483 kts | 115° |
| 2026-05-06 22:01 | 45.16423 | 12.41896 | 38915 ft | 482 kts | 115° |
| 2026-05-06 22:01 | 45.14100 | 12.50793 | 38916 ft | 481 kts | 115° |
| 2026-05-06 22:02 | 45.11773 | 12.59718 | 38919 ft | 481 kts | 115° |
| 2026-05-06 22:02 | 45.09471 | 12.68551 | 38922 ft | 480 kts | 115° |
| 2026-05-06 22:03 | 45.07145 | 12.77456 | 38925 ft | 480 kts | 115° |
| 2026-05-06 22:03 | 45.04807 | 12.86290 | 38929 ft | 480 kts | 116° |
| 2026-05-06 22:04 | 45.02414 | 12.95079 | 38931 ft | 480 kts | 116° |
| 2026-05-06 22:04 | 44.99879 | 13.03792 | 38937 ft | 476 kts | 121° |
| 2026-05-06 22:05 | 44.96747 | 13.11962 | 38951 ft | 473 kts | 125° |
| 2026-05-06 22:05 | 44.93366 | 13.19924 | 38942 ft | 472 kts | 127° |
| 2026-05-06 22:06 | 44.89946 | 13.27750 | 38947 ft | 471 kts | 127° |
| 2026-05-06 22:06 | 44.86472 | 13.35619 | 38970 ft | 471 kts | 127° |
| 2026-05-06 22:07 | 44.83023 | 13.43405 | 38984 ft | 471 kts | 127° |
| 2026-05-06 22:07 | 44.79545 | 13.51241 | 38983 ft | 471 kts | 127° |
| 2026-05-06 22:08 | 44.76050 | 13.59098 | 38983 ft | 471 kts | 127° |
| 2026-05-06 22:08 | 44.72575 | 13.66919 | 38982 ft | 472 kts | 127° |
| 2026-05-06 22:09 | 44.69104 | 13.74725 | 38984 ft | 472 kts | 127° |
| 2026-05-06 22:09 | 44.65634 | 13.82519 | 38990 ft | 472 kts | 127° |
| 2026-05-06 22:10 | 44.62140 | 13.90354 | 39001 ft | 472 kts | 127° |
| 2026-05-06 22:10 | 44.58660 | 13.98143 | 39019 ft | 472 kts | 127° |
| 2026-05-06 22:11 | 44.55162 | 14.05931 | 39044 ft | 473 kts | 127° |
| 2026-05-06 22:11 | 44.51660 | 14.13725 | 39068 ft | 473 kts | 127° |
| 2026-05-06 22:12 | 44.48138 | 14.21529 | 39085 ft | 473 kts | 128° |
| 2026-05-06 22:12 | 44.44570 | 14.29264 | 39093 ft | 473 kts | 128° |
| 2026-05-06 22:13 | 44.40990 | 14.36951 | 39095 ft | 473 kts | 128° |
| 2026-05-06 22:13 | 44.37396 | 14.44641 | 39094 ft | 473 kts | 128° |
| 2026-05-06 22:14 | 44.33796 | 14.52350 | 39087 ft | 473 kts | 128° |
| 2026-05-06 22:14 | 44.30268 | 14.60055 | 39080 ft | 473 kts | 128° |
| 2026-05-06 22:15 | 44.26737 | 14.67831 | 39069 ft | 473 kts | 127° |
| 2026-05-06 22:15 | 44.23219 | 14.75584 | 39055 ft | 473 kts | 127° |
| 2026-05-06 22:16 | 44.19698 | 14.83324 | 39040 ft | 473 kts | 127° |
| 2026-05-06 22:16 | 44.16196 | 14.91008 | 39026 ft | 472 kts | 127° |
| 2026-05-06 22:17 | 44.12665 | 14.98747 | 39014 ft | 472 kts | 127° |
| 2026-05-06 22:17 | 44.09144 | 15.06455 | 39006 ft | 472 kts | 127° |
| 2026-05-06 22:18 | 44.05616 | 15.14174 | 39001 ft | 472 kts | 128° |
| 2026-05-06 22:18 | 44.02093 | 15.21893 | 38997 ft | 472 kts | 128° |
| 2026-05-06 22:19 | 43.98567 | 15.29538 | 38995 ft | 472 kts | 128° |
| 2026-05-06 22:19 | 43.94977 | 15.37178 | 38996 ft | 472 kts | 128° |
| 2026-05-06 22:20 | 43.91390 | 15.44765 | 38994 ft | 472 kts | 128° |
| 2026-05-06 22:20 | 43.87777 | 15.52386 | 38995 ft | 472 kts | 128° |
| 2026-05-06 22:21 | 43.84173 | 15.59983 | 38996 ft | 472 kts | 129° |
| 2026-05-06 22:21 | 43.80562 | 15.67601 | 38998 ft | 473 kts | 129° |
| 2026-05-06 22:22 | 43.76980 | 15.75159 | 39001 ft | 473 kts | 129° |
| 2026-05-06 22:22 | 43.73358 | 15.82776 | 39005 ft | 472 kts | 129° |
| 2026-05-06 22:23 | 43.69712 | 15.90285 | 39009 ft | 472 kts | 129° |
| 2026-05-06 22:23 | 43.66030 | 15.97795 | 39013 ft | 471 kts | 129° |
| 2026-05-06 22:24 | 43.62357 | 16.05248 | 39018 ft | 471 kts | 129° |
| 2026-05-06 22:24 | 43.58652 | 16.12734 | 39020 ft | 471 kts | 130° |
| 2026-05-06 22:25 | 43.54939 | 16.20207 | 39021 ft | 471 kts | 130° |
| 2026-05-06 22:25 | 43.51394 | 16.27750 | 39023 ft | 474 kts | 125° |
| 2026-05-06 22:26 | 43.48195 | 16.35742 | 39023 ft | 476 kts | 123° |
| 2026-05-06 22:26 | 43.45133 | 16.43825 | 39025 ft | 476 kts | 121° |
| 2026-05-06 22:27 | 43.42138 | 16.51974 | 39032 ft | 476 kts | 121° |
| 2026-05-06 22:27 | 43.39159 | 16.60104 | 39042 ft | 476 kts | 121° |
| 2026-05-06 22:28 | 43.36201 | 16.68233 | 39048 ft | 476 kts | 121° |
| 2026-05-06 22:28 | 43.33214 | 16.76398 | 39051 ft | 476 kts | 121° |
| 2026-05-06 22:29 | 43.30231 | 16.84506 | 39050 ft | 476 kts | 121° |
| 2026-05-06 22:29 | 43.27242 | 16.92544 | 39051 ft | 476 kts | 121° |
| 2026-05-06 22:30 | 43.24213 | 17.00640 | 39052 ft | 475 kts | 121° |
| 2026-05-06 22:30 | 43.21174 | 17.08640 | 39053 ft | 475 kts | 121° |
| 2026-05-06 22:31 | 43.18122 | 17.16664 | 39053 ft | 475 kts | 121° |
| 2026-05-06 22:31 | 43.15034 | 17.24711 | 39054 ft | 474 kts | 121° |
| 2026-05-06 22:32 | 43.11975 | 17.32677 | 39054 ft | 474 kts | 121° |
| 2026-05-06 22:32 | 43.08880 | 17.40650 | 39055 ft | 474 kts | 121° |
| 2026-05-06 22:33 | 43.05754 | 17.48613 | 39055 ft | 474 kts | 122° |
| 2026-05-06 22:33 | 43.02664 | 17.56515 | 39057 ft | 474 kts | 121° |
| 2026-05-06 22:34 | 42.99554 | 17.64431 | 39057 ft | 473 kts | 122° |
| 2026-05-06 22:34 | 42.96440 | 17.72358 | 39057 ft | 473 kts | 121° |
| 2026-05-06 22:35 | 42.93314 | 17.80248 | 39059 ft | 473 kts | 122° |
| 2026-05-06 22:35 | 42.90196 | 17.88127 | 39062 ft | 473 kts | 121° |
| 2026-05-06 22:36 | 42.87581 | 17.94684 | 39064 ft | 472 kts | 122° |
| 2026-05-06 22:36 | 42.83914 | 18.03835 | 39068 ft | 472 kts | 121° |
| 2026-05-06 22:37 | 42.80774 | 18.09860 | 39078 ft | 464 kts | 139° |
| 2026-05-06 22:37 | 42.77456 | 18.13544 | 38625 ft | 465 kts | 149° |
| 2026-05-06 22:37 | 42.75650 | 18.15148 | 38256 ft | 465 kts | 152° |
| 2026-05-06 22:38 | 42.72845 | 18.17336 | 37680 ft | 462 kts | 156° |
| 2026-05-06 22:38 | 42.69984 | 18.19326 | 37092 ft | 457 kts | 158° |
| 2026-05-06 22:38 | 42.67135 | 18.21144 | 36503 ft | 452 kts | 160° |
| 2026-05-06 22:38 | 42.64270 | 18.22865 | 35905 ft | 446 kts | 161° |
| 2026-05-06 22:39 | 42.61452 | 18.24494 | 35310 ft | 442 kts | 162° |
| 2026-05-06 22:39 | 42.58741 | 18.26513 | 34715 ft | 446 kts | 150° |
| 2026-05-06 22:39 | 42.56343 | 18.29139 | 34142 ft | 447 kts | 142° |
| 2026-05-06 22:39 | 42.54139 | 18.32122 | 33574 ft | 446 kts | 138° |
| 2026-05-06 22:40 | 42.52077 | 18.35299 | 32991 ft | 445 kts | 135° |
| 2026-05-06 22:40 | 42.50149 | 18.38522 | 32407 ft | 443 kts | 133° |
| 2026-05-06 22:40 | 42.48275 | 18.41833 | 31811 ft | 440 kts | 131° |
| 2026-05-06 22:40 | 42.46454 | 18.45158 | 31211 ft | 437 kts | 130° |
| 2026-05-06 22:41 | 42.42829 | 18.51638 | 30014 ft | 426 kts | 135° |
| 2026-05-06 22:41 | 42.40825 | 18.54567 | 29419 ft | 421 kts | 139° |
| 2026-05-06 22:41 | 42.38770 | 18.57310 | 28828 ft | 415 kts | 141° |
| 2026-05-06 22:42 | 42.36665 | 18.59990 | 28226 ft | 411 kts | 142° |
| 2026-05-06 22:42 | 42.34572 | 18.62608 | 27624 ft | 407 kts | 142° |
| 2026-05-06 22:42 | 42.32527 | 18.65158 | 27030 ft | 403 kts | 142° |
| 2026-05-06 22:42 | 42.30468 | 18.67713 | 26428 ft | 398 kts | 142° |
| 2026-05-06 22:43 | 42.28420 | 18.70244 | 25822 ft | 394 kts | 142° |
| 2026-05-06 22:43 | 42.26419 | 18.72704 | 25226 ft | 390 kts | 142° |
| 2026-05-06 22:43 | 42.24411 | 18.75161 | 24621 ft | 385 kts | 142° |
| 2026-05-06 22:43 | 42.22446 | 18.77553 | 24024 ft | 381 kts | 142° |
| 2026-05-06 22:44 | 42.20472 | 18.79944 | 23420 ft | 376 kts | 142° |
| 2026-05-06 22:44 | 42.18550 | 18.82264 | 22824 ft | 372 kts | 142° |
| 2026-05-06 22:44 | 42.16621 | 18.84584 | 22221 ft | 368 kts | 142° |
| 2026-05-06 22:44 | 42.14732 | 18.86850 | 21625 ft | 364 kts | 142° |
| 2026-05-06 22:45 | 42.12832 | 18.89122 | 21018 ft | 360 kts | 142° |
| 2026-05-06 22:45 | 42.10992 | 18.91318 | 20425 ft | 356 kts | 142° |
| 2026-05-06 22:45 | 42.09130 | 18.93533 | 19830 ft | 351 kts | 142° |
| 2026-05-06 22:45 | 42.07330 | 18.95688 | 19315 ft | 346 kts | 141° |
| 2026-05-06 22:46 | 42.05561 | 18.97826 | 18816 ft | 342 kts | 141° |
| 2026-05-06 22:46 | 42.03798 | 18.99963 | 18314 ft | 339 kts | 141° |
| 2026-05-06 22:46 | 42.02048 | 19.02083 | 17812 ft | 336 kts | 141° |
| 2026-05-06 22:46 | 42.00308 | 19.04190 | 17308 ft | 333 kts | 141° |
| 2026-05-06 22:47 | 41.98609 | 19.06245 | 16812 ft | 330 kts | 141° |
| 2026-05-06 22:47 | 41.96903 | 19.08302 | 16311 ft | 328 kts | 141° |
| 2026-05-06 22:47 | 41.95221 | 19.10327 | 15813 ft | 325 kts | 141° |
| 2026-05-06 22:47 | 41.93545 | 19.12346 | 15310 ft | 318 kts | 141° |
| 2026-05-06 22:48 | 41.91912 | 19.14315 | 14806 ft | 310 kts | 141° |
| 2026-05-06 22:48 | 41.90320 | 19.16230 | 14303 ft | 303 kts | 141° |
| 2026-05-06 22:48 | 41.88769 | 19.18071 | 13804 ft | 297 kts | 142° |
| 2026-05-06 22:48 | 41.87225 | 19.19889 | 13301 ft | 292 kts | 142° |
| 2026-05-06 22:49 | 41.85705 | 19.21673 | 12798 ft | 287 kts | 142° |
| 2026-05-06 22:49 | 41.84207 | 19.23430 | 12296 ft | 284 kts | 142° |
| 2026-05-06 22:49 | 41.82744 | 19.25148 | 11799 ft | 280 kts | 142° |
| 2026-05-06 22:49 | 41.81284 | 19.26871 | 11295 ft | 277 kts | 141° |
| 2026-05-06 22:50 | 41.79892 | 19.28606 | 10801 ft | 275 kts | 138° |
| 2026-05-06 22:50 | 41.78579 | 19.30467 | 10300 ft | 273 kts | 135° |
| 2026-05-06 22:50 | 41.77317 | 19.32353 | 9800 ft | 270 kts | 134° |
| 2026-05-06 22:50 | 41.76070 | 19.34244 | 9297 ft | 268 kts | 134° |
| 2026-05-06 22:51 | 41.74843 | 19.36113 | 8795 ft | 265 kts | 134° |
| 2026-05-06 22:51 | 41.73645 | 19.37949 | 8300 ft | 263 kts | 134° |
| 2026-05-06 22:51 | 41.72447 | 19.39811 | 7796 ft | 262 kts | 133° |
| 2026-05-06 22:51 | 41.71260 | 19.41656 | 7294 ft | 260 kts | 133° |
| 2026-05-06 22:52 | 41.70088 | 19.43468 | 6798 ft | 259 kts | 133° |
| 2026-05-06 22:52 | 41.68914 | 19.45274 | 6299 ft | 257 kts | 133° |
| 2026-05-06 22:52 | 41.67744 | 19.47092 | 5798 ft | 257 kts | 132° |
| 2026-05-06 22:52 | 41.66593 | 19.48884 | 5503 ft | 247 kts | 132° |
| 2026-05-06 22:53 | 41.65568 | 19.50661 | 5231 ft | 240 kts | 121° |
| 2026-05-06 22:53 | 41.65082 | 19.52759 | 5010 ft | 231 kts | 101° |
| 2026-05-06 22:53 | 41.64933 | 19.54852 | 4799 ft | 223 kts | 94° |
| 2026-05-06 22:53 | 41.64887 | 19.56877 | 4616 ft | 218 kts | 92° |
| 2026-05-06 22:54 | 41.64877 | 19.58879 | 4431 ft | 211 kts | 91° |
| 2026-05-06 22:54 | 41.64876 | 19.60816 | 4248 ft | 205 kts | 91° |
| 2026-05-06 22:54 | 41.64878 | 19.62692 | 4067 ft | 201 kts | 91° |
| 2026-05-06 22:54 | 41.64873 | 19.64554 | 3886 ft | 198 kts | 92° |
| 2026-05-06 22:55 | 41.64743 | 19.66351 | 3687 ft | 196 kts | 108° |
| 2026-05-06 22:55 | 41.63973 | 19.67806 | 3514 ft | 192 kts | 141° |
| 2026-05-06 22:55 | 41.62812 | 19.68683 | 3372 ft | 192 kts | 158° |
| 2026-05-06 22:55 | 41.61545 | 19.69197 | 3205 ft | 191 kts | 167° |
| 2026-05-06 22:56 | 41.60235 | 19.69520 | 3030 ft | 189 kts | 172° |
| 2026-05-06 22:56 | 41.58953 | 19.69740 | 2856 ft | 185 kts | 174° |
| 2026-05-06 22:56 | 41.57701 | 19.69917 | 2673 ft | 176 kts | 175° |
| 2026-05-06 22:56 | 41.56511 | 19.70073 | 2499 ft | 167 kts | 175° |
| 2026-05-06 22:57 | 41.55364 | 19.70220 | 2315 ft | 164 kts | 175° |
| 2026-05-06 22:57 | 41.54235 | 19.70366 | 2136 ft | 163 kts | 175° |
| 2026-05-06 22:57 | 41.53106 | 19.70515 | 1961 ft | 162 kts | 175° |
| 2026-05-06 22:57 | 41.52006 | 19.70662 | 1795 ft | 160 kts | 175° |
| 2026-05-06 22:58 | 41.50897 | 19.70810 | 1632 ft | 156 kts | 175° |
| 2026-05-06 22:58 | 41.49832 | 19.70952 | 1446 ft | 151 kts | 175° |
| 2026-05-06 22:58 | 41.48813 | 19.71088 | 1271 ft | 146 kts | 175° |
| 2026-05-06 22:58 | 41.47816 | 19.71221 | 1106 ft | 142 kts | 175° |
| 2026-05-06 22:59 | 41.46832 | 19.71351 | 925 ft | 142 kts | 174° |
| 2026-05-06 22:59 | 41.45847 | 19.71483 | 745 ft | 142 kts | 174° |
| 2026-05-06 22:59 | 41.44861 | 19.71615 | 570 ft | 142 kts | 174° |
| 2026-05-06 22:59 | 41.43885 | 19.71744 | 383 ft | 143 kts | 174° |
| 2026-05-06 23:00 | 41.42891 | 19.71877 | 192 ft | 142 kts | 174° |
| 2026-05-06 23:00 | 41.41950 | 19.72002 | 117 ft | 116 kts | 174° |
| 2026-05-06 23:00 | 41.41366 | 19.72080 | 117 ft | 59 kts | 174° |
| 2026-05-06 23:00 | 41.41004 | 19.72128 | 117 ft | 45 kts | 174° |
| 2026-05-06 23:01 | 41.40755 | 19.72161 | 117 ft | 24 kts | 174° |
| 2026-05-06 23:01 | 41.40683 | 19.72126 | 117 ft | 6 kts | 260° |
| 2026-05-06 23:01 | 41.40673 | 19.72061 | 117 ft | 9 kts | 257° |
| 2026-05-06 23:01 | 41.40655 | 19.71953 | 117 ft | 14 kts | 257° |
| 2026-05-06 23:02 | 41.40633 | 19.71803 | 117 ft | 17 kts | 279° |
| 2026-05-06 23:02 | 41.40719 | 19.71755 | 117 ft | 16 kts | 354° |
| 2026-05-06 23:02 | 41.40848 | 19.71738 | 117 ft | 21 kts | 354° |
| 2026-05-06 23:02 | 41.41005 | 19.71717 | 117 ft | 25 kts | 354° |
| 2026-05-06 23:03 | 41.41189 | 19.71692 | 117 ft | 28 kts | 354° |
| 2026-05-06 23:03 | 41.41397 | 19.71664 | 117 ft | 31 kts | 354° |
| 2026-05-06 23:03 | 41.41621 | 19.71634 | 117 ft | 34 kts | 354° |
| 2026-05-06 23:03 | 41.41806 | 19.71609 | 117 ft | 14 kts | 354° |
| 2026-05-06 23:04 | 41.41876 | 19.71600 | 117 ft | 6 kts | 354° |
| 2026-05-06 23:04 | 41.41912 | 19.71579 | 117 ft | 6 kts | 288° |
| 2026-05-06 23:04 | 41.41913 | 19.71555 | 117 ft | 2 kts | 264° |
| 2026-05-06 23:04 | 41.41912 | 19.71539 | 117 ft | 0 kts | 264° |